GTS weather

Granite Downs Airport
South Australia, Australia

Public forecast

Using degrees Celsius for public forecast. Weather courtesy of forecast.io.

Closest aviation weather report (METAR) to Granite Downs Airport

Closest report is Ayers Rock Connellan Airport, 177.0 nm (327.8 km) NW. Retrieved 2020/02/21 09:00 UTC (27 minutes ago):

YAYE 210900Z AUTO 14013G23KT 9999 // NCD 36/02 Q1012

Closest aviation forecast (TAF) to Granite Downs Airport

Closest forecast is Alice Springs Airport, 189.3 nm (350.6 km) N. Retrieved 2020/02/21 06:00 UTC (3 hours ago):

TAF YBAS 210518Z 2106/2206 13014KT CAVOK FM211000 13008KT CAVOK FM212200 13014KT CAVOK